sensor_id;sensor_type;location;lat;lon;timestamp;temperature;humidity
31747;DHT22;18319;48.974;8.462;2023-09-08T00:00:32;18.40;99.90
31747;DHT22;18319;48.974;8.462;2023-09-08T00:03:00;18.40;99.90
31747;DHT22;18319;48.974;8.462;2023-09-08T00:05:27;18.30;99.90
31747;DHT22;18319;48.974;8.462;2023-09-08T00:07:54;18.30;99.90
31747;DHT22;18319;48.974;8.462;2023-09-08T00:10:21;18.20;99.90
31747;DHT22;18319;48.974;8.462;2023-09-08T00:12:48;18.20;99.90
31747;DHT22;18319;48.974;8.462;2023-09-08T00:15:16;18.20;99.90
31747;DHT22;18319;48.974;8.462;2023-09-08T00:17:43;18.20;99.90
31747;DHT22;18319;48.974;8.462;2023-09-08T00:20:10;18.20;99.90
31747;DHT22;18319;48.974;8.462;2023-09-08T00:22:37;18.20;99.90
31747;DHT22;18319;48.974;8.462;2023-09-08T00:25:05;18.20;99.90
31747;DHT22;18319;48.974;8.462;2023-09-08T00:27:32;18.20;99.90
31747;DHT22;18319;48.974;8.462;2023-09-08T00:29:59;18.20;99.90
31747;DHT22;18319;48.974;8.462;2023-09-08T00:32:28;18.20;99.90
31747;DHT22;18319;48.974;8.462;2023-09-08T00:34:55;18.20;99.90
31747;DHT22;18319;48.974;8.462;2023-09-08T00:37:22;18.20;99.90
31747;DHT22;18319;48.974;8.462;2023-09-08T00:39:49;18.10;99.90
31747;DHT22;18319;48.974;8.462;2023-09-08T00:42:16;18.10;99.90
31747;DHT22;18319;48.974;8.462;2023-09-08T00:44:43;18.00;99.90
31747;DHT22;18319;48.974;8.462;2023-09-08T00:47:09;18.10;99.90
31747;DHT22;18319;48.974;8.462;2023-09-08T00:49:37;18.00;99.90
31747;DHT22;18319;48.974;8.462;2023-09-08T00:52:05;18.00;99.90
31747;DHT22;18319;48.974;8.462;2023-09-08T00:54:32;17.90;99.90
31747;DHT22;18319;48.974;8.462;2023-09-08T00:57:01;17.90;99.90
31747;DHT22;18319;48.974;8.462;2023-09-08T00:59:29;17.90;99.90
31747;DHT22;18319;48.974;8.462;2023-09-08T01:01:56;17.80;99.90
31747;DHT22;18319;48.974;8.462;2023-09-08T01:04:22;17.80;99.90
31747;DHT22;18319;48.974;8.462;2023-09-08T01:06:51;17.70;99.90
31747;DHT22;18319;48.974;8.462;2023-09-08T01:09:18;17.70;99.90
31747;DHT22;18319;48.974;8.462;2023-09-08T01:11:45;17.70;99.90
31747;DHT22;18319;48.974;8.462;2023-09-08T01:14:12;17.60;99.90
31747;DHT22;18319;48.974;8.462;2023-09-08T01:16:39;17.60;99.90
31747;DHT22;18319;48.974;8.462;2023-09-08T01:19:07;17.50;99.90
31747;DHT22;18319;48.974;8.462;2023-09-08T01:22:11;17.50;99.90
31747;DHT22;18319;48.974;8.462;2023-09-08T01:27:49;17.50;99.90
31747;DHT22;18319;48.974;8.462;2023-09-08T01:30:17;17.40;99.90
31747;DHT22;18319;48.974;8.462;2023-09-08T01:32:44;17.40;99.90
31747;DHT22;18319;48.974;8.462;2023-09-08T01:35:15;17.40;99.90
31747;DHT22;18319;48.974;8.462;2023-09-08T01:37:45;17.40;99.90
31747;DHT22;18319;48.974;8.462;2023-09-08T01:40:12;17.40;99.90
31747;DHT22;18319;48.974;8.462;2023-09-08T01:42:40;17.30;99.90
31747;DHT22;18319;48.974;8.462;2023-09-08T01:45:09;17.30;99.90
31747;DHT22;18319;48.974;8.462;2023-09-08T01:47:36;17.30;99.90
31747;DHT22;18319;48.974;8.462;2023-09-08T01:50:03;17.30;99.90
31747;DHT22;18319;48.974;8.462;2023-09-08T01:52:30;17.20;99.90
31747;DHT22;18319;48.974;8.462;2023-09-08T01:54:57;17.20;99.90
31747;DHT22;18319;48.974;8.462;2023-09-08T01:57:23;17.20;99.90
31747;DHT22;18319;48.974;8.462;2023-09-08T01:59:50;17.10;99.90
31747;DHT22;18319;48.974;8.462;2023-09-08T02:02:18;17.10;99.90
31747;DHT22;18319;48.974;8.462;2023-09-08T02:04:45;17.10;99.90
31747;DHT22;18319;48.974;8.462;2023-09-08T02:07:12;17.10;99.90
31747;DHT22;18319;48.974;8.462;2023-09-08T02:09:39;17.00;99.90
31747;DHT22;18319;48.974;8.462;2023-09-08T02:12:07;17.00;99.90
31747;DHT22;18319;48.974;8.462;2023-09-08T02:14:34;16.90;99.90
31747;DHT22;18319;48.974;8.462;2023-09-08T02:17:01;16.90;99.90
31747;DHT22;18319;48.974;8.462;2023-09-08T02:19:29;16.80;99.90
31747;DHT22;18319;48.974;8.462;2023-09-08T02:21:56;16.80;99.90
31747;DHT22;18319;48.974;8.462;2023-09-08T02:24:22;16.80;99.90
31747;DHT22;18319;48.974;8.462;2023-09-08T02:26:49;16.70;99.90
31747;DHT22;18319;48.974;8.462;2023-09-08T02:29:16;16.70;99.90
31747;DHT22;18319;48.974;8.462;2023-09-08T02:31:43;16.70;99.90
31747;DHT22;18319;48.974;8.462;2023-09-08T02:34:10;16.60;99.90
31747;DHT22;18319;48.974;8.462;2023-09-08T02:36:39;16.60;99.90
31747;DHT22;18319;48.974;8.462;2023-09-08T02:39:06;16.50;99.90
31747;DHT22;18319;48.974;8.462;2023-09-08T02:41:33;16.50;99.90
31747;DHT22;18319;48.974;8.462;2023-09-08T02:44:00;16.50;99.90
31747;DHT22;18319;48.974;8.462;2023-09-08T02:46:26;16.50;99.90
31747;DHT22;18319;48.974;8.462;2023-09-08T02:48:53;16.50;99.90
31747;DHT22;18319;48.974;8.462;2023-09-08T02:51:20;16.50;99.90
31747;DHT22;18319;48.974;8.462;2023-09-08T02:53:48;16.50;99.90
31747;DHT22;18319;48.974;8.462;2023-09-08T02:56:15;16.30;99.90
31747;DHT22;18319;48.974;8.462;2023-09-08T02:58:41;16.30;99.90
31747;DHT22;18319;48.974;8.462;2023-09-08T03:01:10;16.30;99.90
31747;DHT22;18319;48.974;8.462;2023-09-08T03:03:39;16.30;99.90
31747;DHT22;18319;48.974;8.462;2023-09-08T03:06:06;16.30;99.90
31747;DHT22;18319;48.974;8.462;2023-09-08T03:08:32;16.30;99.90
31747;DHT22;18319;48.974;8.462;2023-09-08T03:11:00;16.30;99.90
31747;DHT22;18319;48.974;8.462;2023-09-08T03:13:27;16.30;99.90
31747;DHT22;18319;48.974;8.462;2023-09-08T03:15:54;16.30;99.90
31747;DHT22;18319;48.974;8.462;2023-09-08T03:18:21;16.30;99.90
31747;DHT22;18319;48.974;8.462;2023-09-08T03:20:48;16.30;99.90
31747;DHT22;18319;48.974;8.462;2023-09-08T03:23:15;16.30;99.90
31747;DHT22;18319;48.974;8.462;2023-09-08T03:25:42;16.30;99.90
31747;DHT22;18319;48.974;8.462;2023-09-08T03:28:11;16.30;99.90
31747;DHT22;18319;48.974;8.462;2023-09-08T03:30:38;16.20;99.90
31747;DHT22;18319;48.974;8.462;2023-09-08T03:33:04;16.20;99.90
31747;DHT22;18319;48.974;8.462;2023-09-08T03:35:31;16.20;99.90
31747;DHT22;18319;48.974;8.462;2023-09-08T03:37:58;16.10;99.90
31747;DHT22;18319;48.974;8.462;2023-09-08T03:40:24;16.10;99.90
31747;DHT22;18319;48.974;8.462;2023-09-08T03:42:51;16.10;99.90
31747;DHT22;18319;48.974;8.462;2023-09-08T03:45:19;16.10;99.90
31747;DHT22;18319;48.974;8.462;2023-09-08T03:47:46;16.00;99.90
31747;DHT22;18319;48.974;8.462;2023-09-08T03:50:13;15.90;99.90
31747;DHT22;18319;48.974;8.462;2023-09-08T03:52:40;15.90;99.90
31747;DHT22;18319;48.974;8.462;2023-09-08T03:55:07;15.90;99.90
31747;DHT22;18319;48.974;8.462;2023-09-08T03:57:33;15.80;99.90
31747;DHT22;18319;48.974;8.462;2023-09-08T04:00:00;15.90;99.90
31747;DHT22;18319;48.974;8.462;2023-09-08T04:02:28;15.90;99.90
31747;DHT22;18319;48.974;8.462;2023-09-08T04:04:55;15.90;99.90
31747;DHT22;18319;48.974;8.462;2023-09-08T04:07:22;15.80;99.90
31747;DHT22;18319;48.974;8.462;2023-09-08T04:09:48;15.80;99.90
31747;DHT22;18319;48.974;8.462;2023-09-08T04:12:15;15.80;99.90
31747;DHT22;18319;48.974;8.462;2023-09-08T04:14:42;15.80;99.90
31747;DHT22;18319;48.974;8.462;2023-09-08T04:17:08;15.80;99.90
31747;DHT22;18319;48.974;8.462;2023-09-08T04:19:38;15.70;99.90
31747;DHT22;18319;48.974;8.462;2023-09-08T04:22:05;15.70;99.90
31747;DHT22;18319;48.974;8.462;2023-09-08T04:24:35;15.70;99.90
31747;DHT22;18319;48.974;8.462;2023-09-08T04:27:02;15.70;99.90
31747;DHT22;18319;48.974;8.462;2023-09-08T04:29:29;15.60;99.90
31747;DHT22;18319;48.974;8.462;2023-09-08T04:31:56;15.60;99.90
31747;DHT22;18319;48.974;8.462;2023-09-08T04:34:22;15.60;99.90
31747;DHT22;18319;48.974;8.462;2023-09-08T04:36:50;15.60;99.90
31747;DHT22;18319;48.974;8.462;2023-09-08T04:39:17;15.50;99.90
31747;DHT22;18319;48.974;8.462;2023-09-08T04:41:44;15.50;99.90
31747;DHT22;18319;48.974;8.462;2023-09-08T04:44:11;15.50;99.90
31747;DHT22;18319;48.974;8.462;2023-09-08T04:46:37;15.50;99.90
31747;DHT22;18319;48.974;8.462;2023-09-08T04:49:04;15.50;99.90
31747;DHT22;18319;48.974;8.462;2023-09-08T04:51:31;15.40;99.90
31747;DHT22;18319;48.974;8.462;2023-09-08T04:53:59;15.40;99.90
31747;DHT22;18319;48.974;8.462;2023-09-08T04:56:26;15.40;99.90
31747;DHT22;18319;48.974;8.462;2023-09-08T04:58:52;15.40;99.90
31747;DHT22;18319;48.974;8.462;2023-09-08T05:01:20;15.40;99.90
31747;DHT22;18319;48.974;8.462;2023-09-08T05:03:47;15.50;99.90
31747;DHT22;18319;48.974;8.462;2023-09-08T05:06:13;15.40;99.90
31747;DHT22;18319;48.974;8.462;2023-09-08T05:08:40;15.50;99.90
31747;DHT22;18319;48.974;8.462;2023-09-08T05:11:08;15.50;99.90
31747;DHT22;18319;48.974;8.462;2023-09-08T05:13:35;15.50;99.90
31747;DHT22;18319;48.974;8.462;2023-09-08T05:16:02;15.50;99.90
31747;DHT22;18319;48.974;8.462;2023-09-08T05:18:38;15.60;99.90
31747;DHT22;18319;48.974;8.462;2023-09-08T05:21:05;15.50;99.90
31747;DHT22;18319;48.974;8.462;2023-09-08T05:23:31;15.60;99.90
31747;DHT22;18319;48.974;8.462;2023-09-08T05:25:59;15.60;99.90
31747;DHT22;18319;48.974;8.462;2023-09-08T05:28:27;15.70;99.90
31747;DHT22;18319;48.974;8.462;2023-09-08T05:30:54;15.70;99.90
31747;DHT22;18319;48.974;8.462;2023-09-08T05:33:21;15.70;99.90
31747;DHT22;18319;48.974;8.462;2023-09-08T05:35:47;15.70;99.90
31747;DHT22;18319;48.974;8.462;2023-09-08T05:38:14;15.80;99.90
31747;DHT22;18319;48.974;8.462;2023-09-08T05:40:42;15.80;99.90
31747;DHT22;18319;48.974;8.462;2023-09-08T05:43:09;15.80;99.90
31747;DHT22;18319;48.974;8.462;2023-09-08T05:45:37;15.90;99.90
31747;DHT22;18319;48.974;8.462;2023-09-08T05:48:06;15.90;99.90
31747;DHT22;18319;48.974;8.462;2023-09-08T05:50:33;16.00;99.90
31747;DHT22;18319;48.974;8.462;2023-09-08T05:53:00;16.00;99.90
31747;DHT22;18319;48.974;8.462;2023-09-08T05:55:27;16.10;99.90
31747;DHT22;18319;48.974;8.462;2023-09-08T05:57:53;16.20;99.90
31747;DHT22;18319;48.974;8.462;2023-09-08T06:00:23;16.30;99.90
31747;DHT22;18319;48.974;8.462;2023-09-08T06:02:51;16.40;99.90
31747;DHT22;18319;48.974;8.462;2023-09-08T06:05:18;16.50;99.90
31747;DHT22;18319;48.974;8.462;2023-09-08T06:07:45;16.60;99.90
31747;DHT22;18319;48.974;8.462;2023-09-08T06:10:12;16.60;99.90
31747;DHT22;18319;48.974;8.462;2023-09-08T06:12:38;16.70;99.90
31747;DHT22;18319;48.974;8.462;2023-09-08T06:15:06;16.80;99.90
31747;DHT22;18319;48.974;8.462;2023-09-08T06:17:33;16.90;99.90
31747;DHT22;18319;48.974;8.462;2023-09-08T06:20:01;16.90;99.90
31747;DHT22;18319;48.974;8.462;2023-09-08T06:22:28;17.00;99.90
31747;DHT22;18319;48.974;8.462;2023-09-08T06:24:54;17.10;99.90
31747;DHT22;18319;48.974;8.462;2023-09-08T06:27:21;17.20;99.90
31747;DHT22;18319;48.974;8.462;2023-09-08T06:29:48;17.30;99.90
31747;DHT22;18319;48.974;8.462;2023-09-08T06:32:15;17.40;99.90
31747;DHT22;18319;48.974;8.462;2023-09-08T06:34:41;17.40;99.90
31747;DHT22;18319;48.974;8.462;2023-09-08T06:37:10;17.50;99.90
31747;DHT22;18319;48.974;8.462;2023-09-08T06:39:37;17.60;99.90
31747;DHT22;18319;48.974;8.462;2023-09-08T06:42:06;17.70;99.90
31747;DHT22;18319;48.974;8.462;2023-09-08T06:44:33;17.80;99.90
31747;DHT22;18319;48.974;8.462;2023-09-08T06:47:00;17.90;99.90
31747;DHT22;18319;48.974;8.462;2023-09-08T06:49:30;17.90;99.90
31747;DHT22;18319;48.974;8.462;2023-09-08T06:51:56;18.10;99.90
31747;DHT22;18319;48.974;8.462;2023-09-08T06:54:24;18.20;99.90
31747;DHT22;18319;48.974;8.462;2023-09-08T06:56:51;18.40;99.90
31747;DHT22;18319;48.974;8.462;2023-09-08T06:59:18;18.50;99.90
31747;DHT22;18319;48.974;8.462;2023-09-08T07:01:45;18.60;99.90
31747;DHT22;18319;48.974;8.462;2023-09-08T07:04:11;18.80;99.90
31747;DHT22;18319;48.974;8.462;2023-09-08T07:06:38;19.00;99.90
31747;DHT22;18319;48.974;8.462;2023-09-08T07:09:07;19.30;99.90
31747;DHT22;18319;48.974;8.462;2023-09-08T07:11:35;19.70;99.90
31747;DHT22;18319;48.974;8.462;2023-09-08T07:14:02;20.00;99.90
31747;DHT22;18319;48.974;8.462;2023-09-08T07:16:28;20.30;99.90
31747;DHT22;18319;48.974;8.462;2023-09-08T07:18:55;20.50;99.90
31747;DHT22;18319;48.974;8.462;2023-09-08T07:21:22;20.80;99.90
31747;DHT22;18319;48.974;8.462;2023-09-08T07:23:49;20.90;99.90
31747;DHT22;18319;48.974;8.462;2023-09-08T07:26:16;21.00;99.90
31747;DHT22;18319;48.974;8.462;2023-09-08T07:28:44;21.50;99.90
31747;DHT22;18319;48.974;8.462;2023-09-08T07:31:11;22.30;99.90
31747;DHT22;18319;48.974;8.462;2023-09-08T07:33:38;22.90;99.90
31747;DHT22;18319;48.974;8.462;2023-09-08T07:36:05;23.00;99.90
31747;DHT22;18319;48.974;8.462;2023-09-08T07:38:32;23.50;99.90
31747;DHT22;18319;48.974;8.462;2023-09-08T07:40:59;24.10;99.90
31747;DHT22;18319;48.974;8.462;2023-09-08T07:43:26;24.10;99.90
31747;DHT22;18319;48.974;8.462;2023-09-08T07:45:54;24.50;99.90
31747;DHT22;18319;48.974;8.462;2023-09-08T07:48:21;25.00;99.90
31747;DHT22;18319;48.974;8.462;2023-09-08T07:50:48;25.30;99.90
31747;DHT22;18319;48.974;8.462;2023-09-08T07:53:15;25.40;99.90
31747;DHT22;18319;48.974;8.462;2023-09-08T07:55:41;25.80;99.90
31747;DHT22;18319;48.974;8.462;2023-09-08T07:58:08;26.20;99.90
31747;DHT22;18319;48.974;8.462;2023-09-08T08:00:36;26.50;99.90
31747;DHT22;18319;48.974;8.462;2023-09-08T08:03:04;26.60;99.90
31747;DHT22;18319;48.974;8.462;2023-09-08T08:05:31;26.70;99.90
31747;DHT22;18319;48.974;8.462;2023-09-08T08:07:58;27.00;99.90
31747;DHT22;18319;48.974;8.462;2023-09-08T08:10:25;26.70;99.90
31747;DHT22;18319;48.974;8.462;2023-09-08T08:12:52;26.70;99.90
31747;DHT22;18319;48.974;8.462;2023-09-08T08:15:19;26.80;99.90
31747;DHT22;18319;48.974;8.462;2023-09-08T08:17:46;27.00;99.90
31747;DHT22;18319;48.974;8.462;2023-09-08T08:20:15;27.50;99.90
31747;DHT22;18319;48.974;8.462;2023-09-08T08:22:43;27.60;99.90
31747;DHT22;18319;48.974;8.462;2023-09-08T08:25:11;27.80;99.90
31747;DHT22;18319;48.974;8.462;2023-09-08T08:27:38;27.70;99.90
31747;DHT22;18319;48.974;8.462;2023-09-08T08:30:06;27.90;99.90
31747;DHT22;18319;48.974;8.462;2023-09-08T08:32:34;27.80;99.90
31747;DHT22;18319;48.974;8.462;2023-09-08T08:35:00;27.70;99.90
31747;DHT22;18319;48.974;8.462;2023-09-08T08:37:28;27.90;99.90
31747;DHT22;18319;48.974;8.462;2023-09-08T08:39:55;27.80;99.90
31747;DHT22;18319;48.974;8.462;2023-09-08T08:42:22;26.40;99.90
31747;DHT22;18319;48.974;8.462;2023-09-08T08:44:49;26.00;99.90
31747;DHT22;18319;48.974;8.462;2023-09-08T08:47:17;26.00;99.90
31747;DHT22;18319;48.974;8.462;2023-09-08T08:49:46;26.20;99.90
31747;DHT22;18319;48.974;8.462;2023-09-08T08:52:15;26.00;99.90
31747;DHT22;18319;48.974;8.462;2023-09-08T08:54:45;25.40;99.90
31747;DHT22;18319;48.974;8.462;2023-09-08T08:57:12;25.30;99.90
31747;DHT22;18319;48.974;8.462;2023-09-08T08:59:39;24.90;99.90
31747;DHT22;18319;48.974;8.462;2023-09-08T09:02:09;24.40;99.90
31747;DHT22;18319;48.974;8.462;2023-09-08T09:04:38;24.50;99.90
31747;DHT22;18319;48.974;8.462;2023-09-08T09:07:06;24.40;99.90
31747;DHT22;18319;48.974;8.462;2023-09-08T09:09:33;24.30;99.90
31747;DHT22;18319;48.974;8.462;2023-09-08T09:12:01;24.30;99.90
31747;DHT22;18319;48.974;8.462;2023-09-08T09:14:31;24.10;99.90
31747;DHT22;18319;48.974;8.462;2023-09-08T09:16:58;24.00;99.90
31747;DHT22;18319;48.974;8.462;2023-09-08T09:19:25;24.00;99.90
31747;DHT22;18319;48.974;8.462;2023-09-08T09:21:53;24.00;99.90
31747;DHT22;18319;48.974;8.462;2023-09-08T09:24:30;24.00;99.90
31747;DHT22;18319;48.974;8.462;2023-09-08T09:26:57;24.00;99.90
31747;DHT22;18319;48.974;8.462;2023-09-08T09:29:26;23.90;99.90
31747;DHT22;18319;48.974;8.462;2023-09-08T09:31:54;24.00;99.90
31747;DHT22;18319;48.974;8.462;2023-09-08T09:34:21;23.90;99.90
31747;DHT22;18319;48.974;8.462;2023-09-08T09:36:49;24.00;99.90
31747;DHT22;18319;48.974;8.462;2023-09-08T09:39:17;24.00;99.90
31747;DHT22;18319;48.974;8.462;2023-09-08T09:41:45;23.90;99.90
31747;DHT22;18319;48.974;8.462;2023-09-08T09:44:12;23.90;99.90
31747;DHT22;18319;48.974;8.462;2023-09-08T09:46:43;24.00;99.90
31747;DHT22;18319;48.974;8.462;2023-09-08T09:49:10;24.10;99.90
31747;DHT22;18319;48.974;8.462;2023-09-08T09:51:40;24.10;99.90
31747;DHT22;18319;48.974;8.462;2023-09-08T09:54:08;24.10;99.90
31747;DHT22;18319;48.974;8.462;2023-09-08T09:56:38;24.10;99.90
31747;DHT22;18319;48.974;8.462;2023-09-08T09:59:05;24.20;99.90
31747;DHT22;18319;48.974;8.462;2023-09-08T10:01:35;24.20;99.90
31747;DHT22;18319;48.974;8.462;2023-09-08T10:04:04;24.20;99.90
31747;DHT22;18319;48.974;8.462;2023-09-08T10:06:31;24.20;99.90
31747;DHT22;18319;48.974;8.462;2023-09-08T10:08:59;24.30;99.90
31747;DHT22;18319;48.974;8.462;2023-09-08T10:11:29;24.20;99.90
31747;DHT22;18319;48.974;8.462;2023-09-08T10:13:59;24.10;99.90
31747;DHT22;18319;48.974;8.462;2023-09-08T10:16:27;24.20;99.90
31747;DHT22;18319;48.974;8.462;2023-09-08T10:18:55;24.40;99.90
31747;DHT22;18319;48.974;8.462;2023-09-08T10:21:26;24.40;99.90
31747;DHT22;18319;48.974;8.462;2023-09-08T10:23:59;24.40;99.90
31747;DHT22;18319;48.974;8.462;2023-09-08T10:26:32;24.40;99.90
31747;DHT22;18319;48.974;8.462;2023-09-08T10:29:00;24.40;99.90
31747;DHT22;18319;48.974;8.462;2023-09-08T10:31:28;24.50;99.90
31747;DHT22;18319;48.974;8.462;2023-09-08T10:33:56;24.70;99.90
31747;DHT22;18319;48.974;8.462;2023-09-08T10:36:25;24.70;99.90
31747;DHT22;18319;48.974;8.462;2023-09-08T10:38:52;24.70;99.90
31747;DHT22;18319;48.974;8.462;2023-09-08T10:41:27;24.70;99.90
31747;DHT22;18319;48.974;8.462;2023-09-08T10:44:01;24.70;99.90
31747;DHT22;18319;48.974;8.462;2023-09-08T10:46:31;24.70;99.90
31747;DHT22;18319;48.974;8.462;2023-09-08T10:49:03;24.60;99.90
31747;DHT22;18319;48.974;8.462;2023-09-08T10:51:31;24.70;99.90
31747;DHT22;18319;48.974;8.462;2023-09-08T10:56:48;24.90;99.90
31747;DHT22;18319;48.974;8.462;2023-09-08T11:02:05;24.90;99.90
31747;DHT22;18319;48.974;8.462;2023-09-08T11:04:32;25.00;99.90
31747;DHT22;18319;48.974;8.462;2023-09-08T11:07:02;25.00;99.90
31747;DHT22;18319;48.974;8.462;2023-09-08T11:09:35;25.10;99.90
31747;DHT22;18319;48.974;8.462;2023-09-08T11:12:03;25.20;99.90
31747;DHT22;18319;48.974;8.462;2023-09-08T11:14:33;25.20;99.90
31747;DHT22;18319;48.974;8.462;2023-09-08T11:17:03;25.30;99.90
31747;DHT22;18319;48.974;8.462;2023-09-08T11:19:43;25.30;99.90
31747;DHT22;18319;48.974;8.462;2023-09-08T11:22:11;25.40;99.90
31747;DHT22;18319;48.974;8.462;2023-09-08T11:24:41;25.40;99.90
31747;DHT22;18319;48.974;8.462;2023-09-08T11:27:11;25.50;99.90
31747;DHT22;18319;48.974;8.462;2023-09-08T11:29:38;25.50;99.90
31747;DHT22;18319;48.974;8.462;2023-09-08T11:32:07;25.60;99.90
31747;DHT22;18319;48.974;8.462;2023-09-08T11:34:35;25.70;99.90
31747;DHT22;18319;48.974;8.462;2023-09-08T11:37:09;25.70;99.90
31747;DHT22;18319;48.974;8.462;2023-09-08T11:39:41;25.80;99.90
31747;DHT22;18319;48.974;8.462;2023-09-08T11:42:12;25.80;99.90
31747;DHT22;18319;48.974;8.462;2023-09-08T11:44:40;25.80;99.90
31747;DHT22;18319;48.974;8.462;2023-09-08T11:47:09;25.90;99.90
31747;DHT22;18319;48.974;8.462;2023-09-08T11:49:37;25.90;99.90
31747;DHT22;18319;48.974;8.462;2023-09-08T11:52:06;25.90;99.90
31747;DHT22;18319;48.974;8.462;2023-09-08T11:54:34;25.80;99.90
31747;DHT22;18319;48.974;8.462;2023-09-08T11:57:04;25.80;99.90
31747;DHT22;18319;48.974;8.462;2023-09-08T11:59:34;25.80;99.90
31747;DHT22;18319;48.974;8.462;2023-09-08T12:02:02;25.90;99.90
31747;DHT22;18319;48.974;8.462;2023-09-08T12:04:30;25.90;99.90
31747;DHT22;18319;48.974;8.462;2023-09-08T12:06:57;26.00;99.90
31747;DHT22;18319;48.974;8.462;2023-09-08T12:09:25;26.10;99.90
31747;DHT22;18319;48.974;8.462;2023-09-08T12:11:52;26.10;99.90
31747;DHT22;18319;48.974;8.462;2023-09-08T12:14:20;26.20;99.90
31747;DHT22;18319;48.974;8.462;2023-09-08T12:16:48;26.20;99.90
31747;DHT22;18319;48.974;8.462;2023-09-08T12:19:30;26.20;99.90
31747;DHT22;18319;48.974;8.462;2023-09-08T12:22:00;26.20;99.90
31747;DHT22;18319;48.974;8.462;2023-09-08T12:24:55;26.40;99.90
31747;DHT22;18319;48.974;8.462;2023-09-08T12:27:24;26.40;99.90
31747;DHT22;18319;48.974;8.462;2023-09-08T12:29:55;26.40;99.90
31747;DHT22;18319;48.974;8.462;2023-09-08T12:32:23;26.40;99.90
31747;DHT22;18319;48.974;8.462;2023-09-08T12:34:51;26.50;99.90
31747;DHT22;18319;48.974;8.462;2023-09-08T12:37:22;26.40;99.90
31747;DHT22;18319;48.974;8.462;2023-09-08T12:39:49;26.50;99.90
31747;DHT22;18319;48.974;8.462;2023-09-08T12:42:18;26.50;99.90
31747;DHT22;18319;48.974;8.462;2023-09-08T12:44:46;26.50;99.90
31747;DHT22;18319;48.974;8.462;2023-09-08T12:47:15;26.50;99.90
31747;DHT22;18319;48.974;8.462;2023-09-08T12:49:43;26.50;99.90
31747;DHT22;18319;48.974;8.462;2023-09-08T12:52:10;26.40;99.90
31747;DHT22;18319;48.974;8.462;2023-09-08T12:54:38;26.50;99.90
31747;DHT22;18319;48.974;8.462;2023-09-08T12:57:06;26.50;99.90
31747;DHT22;18319;48.974;8.462;2023-09-08T12:59:34;26.50;99.90
31747;DHT22;18319;48.974;8.462;2023-09-08T13:02:01;26.50;99.90
31747;DHT22;18319;48.974;8.462;2023-09-08T13:04:30;26.50;99.90
31747;DHT22;18319;48.974;8.462;2023-09-08T13:06:58;26.50;99.90
31747;DHT22;18319;48.974;8.462;2023-09-08T13:09:27;26.60;99.90
31747;DHT22;18319;48.974;8.462;2023-09-08T13:11:56;26.50;99.90
31747;DHT22;18319;48.974;8.462;2023-09-08T13:14:24;26.60;99.90
31747;DHT22;18319;48.974;8.462;2023-09-08T13:16:54;26.60;99.90
31747;DHT22;18319;48.974;8.462;2023-09-08T13:19:24;26.60;99.90
31747;DHT22;18319;48.974;8.462;2023-09-08T13:21:53;26.70;99.90
31747;DHT22;18319;48.974;8.462;2023-09-08T13:24:21;26.70;99.90
31747;DHT22;18319;48.974;8.462;2023-09-08T13:26:52;26.70;99.90
31747;DHT22;18319;48.974;8.462;2023-09-08T13:29:20;26.80;99.90
31747;DHT22;18319;48.974;8.462;2023-09-08T13:31:48;26.80;99.90
31747;DHT22;18319;48.974;8.462;2023-09-08T13:34:16;26.80;99.90
31747;DHT22;18319;48.974;8.462;2023-09-08T13:36:49;26.80;99.90
31747;DHT22;18319;48.974;8.462;2023-09-08T13:39:18;26.80;99.90
31747;DHT22;18319;48.974;8.462;2023-09-08T13:41:50;26.90;99.90
31747;DHT22;18319;48.974;8.462;2023-09-08T13:44:19;27.00;99.90
31747;DHT22;18319;48.974;8.462;2023-09-08T13:46:46;27.00;99.90
31747;DHT22;18319;48.974;8.462;2023-09-08T13:49:14;26.90;99.90
31747;DHT22;18319;48.974;8.462;2023-09-08T13:51:43;26.90;99.90
31747;DHT22;18319;48.974;8.462;2023-09-08T13:54:17;26.90;99.90
31747;DHT22;18319;48.974;8.462;2023-09-08T13:56:44;26.90;99.90
31747;DHT22;18319;48.974;8.462;2023-09-08T13:59:14;26.90;99.90
31747;DHT22;18319;48.974;8.462;2023-09-08T14:01:42;26.90;99.90
31747;DHT22;18319;48.974;8.462;2023-09-08T14:04:10;26.80;99.90
31747;DHT22;18319;48.974;8.462;2023-09-08T14:06:38;26.90;99.90
31747;DHT22;18319;48.974;8.462;2023-09-08T14:09:05;26.90;99.90
31747;DHT22;18319;48.974;8.462;2023-09-08T14:11:36;26.90;99.90
31747;DHT22;18319;48.974;8.462;2023-09-08T14:14:17;27.00;99.90
31747;DHT22;18319;48.974;8.462;2023-09-08T14:17:01;26.90;99.90
31747;DHT22;18319;48.974;8.462;2023-09-08T14:19:49;26.90;99.90
31747;DHT22;18319;48.974;8.462;2023-09-08T14:22:31;26.80;99.90
31747;DHT22;18319;48.974;8.462;2023-09-08T14:25:06;26.80;99.90
31747;DHT22;18319;48.974;8.462;2023-09-08T14:27:45;26.90;99.90
31747;DHT22;18319;48.974;8.462;2023-09-08T14:30:33;26.90;99.90
31747;DHT22;18319;48.974;8.462;2023-09-08T14:33:21;26.90;99.90
31747;DHT22;18319;48.974;8.462;2023-09-08T14:35:59;26.80;99.90
31747;DHT22;18319;48.974;8.462;2023-09-08T14:38:41;26.80;99.90
31747;DHT22;18319;48.974;8.462;2023-09-08T14:41:13;26.80;99.90
31747;DHT22;18319;48.974;8.462;2023-09-08T14:43:46;26.90;99.90
31747;DHT22;18319;48.974;8.462;2023-09-08T14:46:22;26.80;99.90
31747;DHT22;18319;48.974;8.462;2023-09-08T14:48:53;26.80;99.90
31747;DHT22;18319;48.974;8.462;2023-09-08T14:51:26;26.80;99.90
31747;DHT22;18319;48.974;8.462;2023-09-08T14:54:00;26.80;99.90
31747;DHT22;18319;48.974;8.462;2023-09-08T14:56:40;26.80;99.90
31747;DHT22;18319;48.974;8.462;2023-09-08T14:59:39;26.80;99.90
31747;DHT22;18319;48.974;8.462;2023-09-08T15:02:15;26.70;99.90
31747;DHT22;18319;48.974;8.462;2023-09-08T15:05:04;26.80;99.90
31747;DHT22;18319;48.974;8.462;2023-09-08T15:07:41;26.70;99.90
31747;DHT22;18319;48.974;8.462;2023-09-08T15:10:09;26.70;99.90
31747;DHT22;18319;48.974;8.462;2023-09-08T15:12:36;26.80;99.90
31747;DHT22;18319;48.974;8.462;2023-09-08T15:15:07;26.70;99.90
31747;DHT22;18319;48.974;8.462;2023-09-08T15:17:34;26.80;99.90
31747;DHT22;18319;48.974;8.462;2023-09-08T15:20:01;26.70;99.90
31747;DHT22;18319;48.974;8.462;2023-09-08T15:22:31;26.70;99.90
31747;DHT22;18319;48.974;8.462;2023-09-08T15:24:59;26.60;99.90
31747;DHT22;18319;48.974;8.462;2023-09-08T15:27:34;26.60;99.90
31747;DHT22;18319;48.974;8.462;2023-09-08T15:30:01;26.60;99.90
31747;DHT22;18319;48.974;8.462;2023-09-08T15:38:27;26.40;99.90
31747;DHT22;18319;48.974;8.462;2023-09-08T15:41:16;26.30;99.90
31747;DHT22;18319;48.974;8.462;2023-09-08T15:43:49;26.20;99.90
31747;DHT22;18319;48.974;8.462;2023-09-08T15:46:17;26.10;99.90
31747;DHT22;18319;48.974;8.462;2023-09-08T15:48:50;26.10;99.90
31747;DHT22;18319;48.974;8.462;2023-09-08T15:51:18;26.00;99.90
31747;DHT22;18319;48.974;8.462;2023-09-08T15:53:56;26.10;99.90